Time;durP1;ratioP1;P1;durP2;ratioP2;P2;SDS_P1;SDS_P2;PMS_P1;PMS_P2;Temp;Humidity;BMP_temperature;BMP_pressure;BME280_temperature;BME280_humidity;BME280_pressure;Samples;Min_cycle;Max_cycle;Signal;HPM_P1;HPM_P2
2021/12/16 00:01:46;;;;;;;0.10;0.10;;;;;;;20.23;44.97;102982.81;5130082;27;20088;-37
2021/12/16 00:03:23;;;;;;;0.20;0.20;;;;;;;20.23;45.05;102982.00;5115400;27;20047;-36
2021/12/16 00:19:59;;;;;;;0.10;0.10;;;;;;;20.21;44.95;102990.53;5160756;27;20044;-37
2021/12/16 00:28:58;;;;;;;0.20;0.20;;;;;;;20.23;44.56;102987.53;5140337;27;20055;-37
2021/12/16 00:33:34;;;;;;;0.20;0.20;;;;;;;20.21;44.84;102984.16;5140377;27;20042;-36
2021/12/16 00:35:51;;;;;;;0.20;0.20;;;;;;;20.20;45.07;102980.53;5141491;27;20047;-37
2021/12/16 00:38:17;;;;;;;0.20;0.20;;;;;;;20.19;44.89;102987.16;5143147;27;20057;-36
2021/12/16 00:40:44;;;;;;;0.20;0.20;;;;;;;20.19;44.73;102989.91;5140983;27;20043;-36
2021/12/16 00:43:17;;;;;;;0.20;0.20;;;;;;;20.21;44.88;102986.94;5141206;27;20273;-37
2021/12/16 00:46:08;;;;;;;0.20;0.20;;;;;;;20.20;45.04;102991.59;5126186;27;20043;-37
2021/12/16 00:49:03;;;;;;;0.20;0.20;;;;;;;20.20;45.13;102983.28;5135441;27;20481;-36
2021/12/16 00:56:54;;;;;;;0.17;0.17;;;;;;;20.19;45.24;102986.31;5182297;27;20151;-37
2021/12/16 00:59:21;;;;;;;0.13;0.13;;;;;;;20.19;44.72;102991.84;5148245;27;20288;-37
2021/12/16 01:33:41;;;;;;;0.10;0.10;;;;;;;20.18;44.69;103001.22;5149380;27;20053;-37
2021/12/16 01:35:05;;;;;;;0.20;0.20;;;;;;;20.16;44.76;103006.97;5148870;27;20043;-36
2021/12/16 01:40:41;;;;;;;0.20;0.20;;;;;;;20.17;45.10;103008.69;5150689;27;20719;-36
2021/12/16 01:46:05;;;;;;;0.10;0.10;;;;;;;20.16;45.05;103012.50;5167811;27;20209;-38
2021/12/16 01:51:22;;;;;;;0.20;0.20;;;;;;;20.16;45.04;103018.03;5133847;27;20096;-39
2021/12/16 01:56:57;;;;;;;0.20;0.20;;;;;;;20.16;45.07;103015.28;5106530;27;20043;-38
2021/12/16 01:59:32;;;;;;;0.20;0.20;;;;;;;20.16;44.76;103018.03;5149310;27;20042;-39
2021/12/16 02:02:04;;;;;;;0.20;0.20;;;;;;;20.15;44.86;103019.13;5150581;27;20047;-38
2021/12/16 02:04:40;;;;;;;0.10;0.10;;;;;;;20.16;45.08;103018.03;5144778;27;20046;-39
2021/12/16 02:07:23;;;;;;;0.17;0.17;;;;;;;20.14;44.85;103014.69;5144414;27;20046;-38
2021/12/16 02:09:49;;;;;;;0.20;0.20;;;;;;;20.16;44.84;103014.44;5150401;27;20043;-37
2021/12/16 02:12:41;;;;;;;0.20;0.20;;;;;;;20.16;44.84;103018.03;5148842;27;20493;-37
2021/12/16 02:31:32;;;;;;;0.20;0.20;;;;;;;20.15;44.89;103021.06;5143084;27;20666;-39
2021/12/16 02:36:45;;;;;;;0.20;0.20;;;;;;;20.15;45.10;103023.81;5120090;27;20468;-37
2021/12/16 02:39:19;;;;;;;0.20;0.20;;;;;;;20.14;44.72;103017.44;5148654;27;20053;-37
2021/12/16 02:41:47;;;;;;;0.20;0.20;;;;;;;20.13;45.12;103018.53;5149239;27;20038;-38
2021/12/16 02:44:24;;;;;;;0.10;0.10;;;;;;;20.14;45.08;103030.44;5129897;27;20038;-38
2021/12/16 02:49:44;;;;;;;0.20;0.20;;;;;;;20.13;44.94;103031.53;5114339;27;20509;-37
2021/12/16 02:52:10;;;;;;;0.13;0.13;;;;;;;20.13;44.70;103032.38;5149098;27;20388;-38
2021/12/16 02:54:36;;;;;;;0.10;0.10;;;;;;;20.13;45.15;103042.59;5133504;27;20049;-37
2021/12/16 02:57:03;;;;;;;0.20;0.20;;;;;;;20.13;44.86;103024.06;5103764;28;20035;-37
2021/12/16 02:59:30;;;;;;;0.20;0.20;;;;;;;20.14;45.18;103022.16;5115852;27;20035;-38
2021/12/16 03:02:01;;;;;;;0.20;0.20;;;;;;;20.14;44.92;103030.44;5120423;27;20037;-38
2021/12/16 03:04:29;;;;;;;0.20;0.20;;;;;;;20.14;44.75;103033.22;5131906;27;20046;-38
2021/12/16 03:06:57;;;;;;;0.20;0.20;;;;;;;20.14;44.64;103035.97;5133751;27;20129;-37
2021/12/16 03:09:49;;;;;;;0.20;0.20;;;;;;;20.13;44.70;103026.00;5110629;28;20047;-37
2021/12/16 03:15:05;;;;;;;0.20;0.20;;;;;;;20.13;45.05;103026.00;5119314;27;20485;-36
2021/12/16 03:17:41;;;;;;;0.20;0.20;;;;;;;20.13;45.02;103034.31;5117661;27;20043;-37
2021/12/16 03:20:15;;;;;;;0.20;0.20;;;;;;;20.11;45.09;103031.75;5117424;27;20053;-37
2021/12/16 03:25:45;;;;;;;0.20;0.20;;;;;;;20.12;44.77;103027.06;5118406;27;20057;-40
2021/12/16 03:31:25;;;;;;;0.20;0.20;;;;;;;20.12;45.03;103027.94;5162130;27;20186;-39
2021/12/16 03:36:49;;;;;;;0.20;0.20;;;;;;;20.11;44.74;103028.97;5129855;27;20106;-38
2021/12/16 03:39:16;;;;;;;0.20;0.20;;;;;;;20.11;45.20;103037.28;5157024;27;20043;-37
2021/12/16 03:41:42;;;;;;;0.10;0.10;;;;;;;20.12;44.88;103027.06;5159955;27;20122;-39
2021/12/16 03:44:11;;;;;;;0.20;0.20;;;;;;;20.11;44.90;103037.28;5139883;27;20055;-38
2021/12/16 03:46:42;;;;;;;0.10;0.10;;;;;;;20.12;44.85;103043.66;5157773;27;20043;-37
2021/12/16 03:49:14;;;;;;;0.10;0.10;;;;;;;20.11;45.06;103040.03;5139028;27;20041;-37
2021/12/16 03:51:52;;;;;;;0.20;0.20;;;;;;;20.12;44.90;103041.75;5139432;27;20047;-36
2021/12/16 03:54:23;;;;;;;0.10;0.10;;;;;;;20.12;44.86;103043.66;5139523;27;20043;-38
2021/12/16 03:56:49;;;;;;;0.20;0.20;;;;;;;20.11;44.98;103044.75;5159158;27;20414;-36
2021/12/16 03:59:19;;;;;;;0.20;0.20;;;;;;;20.12;44.96;103043.66;5140777;27;20050;-38
2021/12/16 04:01:45;;;;;;;0.20;0.20;;;;;;;20.11;44.81;103048.34;5158479;27;20172;-36
2021/12/16 04:04:11;;;;;;;0.10;0.10;;;;;;;20.10;44.73;103054.97;5139190;27;20058;-37
2021/12/16 04:06:37;;;;;;;0.20;0.20;;;;;;;20.11;44.69;103050.28;5158148;27;20045;-37
2021/12/16 04:09:05;;;;;;;0.20;0.20;;;;;;;20.10;45.08;103052.19;5141034;27;20053;-38
2021/12/16 04:11:39;;;;;;;0.10;0.10;;;;;;;20.11;44.80;103061.34;5159934;27;20499;-36
2021/12/16 04:14:06;;;;;;;0.20;0.20;;;;;;;20.11;45.00;103058.56;5122239;27;20439;-36
2021/12/16 04:16:45;;;;;;;0.10;0.10;;;;;;;20.09;45.04;103058.81;5141825;27;20093;-37
2021/12/16 04:19:12;;;;;;;;;;;;;;;20.10;45.10;103056.88;5138544;27;20257;-38
2021/12/16 04:21:41;;;;;;;0.20;0.20;;;;;;;20.09;44.92;103056.06;5139994;27;19919;-38
2021/12/16 04:24:07;;;;;;;0.20;0.20;;;;;;;20.11;44.75;103058.56;5135855;27;20393;-38
2021/12/16 04:26:33;;;;;;;0.20;0.20;;;;;;;20.10;44.93;103062.41;5118846;27;20129;-38
2021/12/16 04:28:59;;;;;;;0.20;0.20;;;;;;;20.11;44.80;103061.34;5102532;27;20047;-38
2021/12/16 04:31:25;;;;;;;0.20;0.20;;;;;;;20.10;44.71;103059.66;5137923;27;20046;-38
2021/12/16 04:33:51;;;;;;;0.20;0.20;;;;;;;20.10;44.90;103060.50;5117378;27;20185;-36
2021/12/16 04:36:18;;;;;;;0.20;0.20;;;;;;;20.09;44.76;103053.28;5142325;27;20051;-37
2021/12/16 04:38:45;;;;;;;0.20;0.20;;;;;;;20.09;44.82;103053.28;5136321;27;20051;-36
2021/12/16 04:41:12;;;;;;;0.10;0.10;;;;;;;20.11;44.71;103069.63;5131314;27;20043;-36
2021/12/16 04:43:45;;;;;;;0.15;0.15;;;;;;;20.10;44.94;103074.31;5120951;28;20062;-37
2021/12/16 04:46:14;;;;;;;0.20;0.20;;;;;;;20.11;45.04;103064.09;5110436;28;20489;-38
2021/12/16 04:48:42;;;;;;;0.10;0.10;;;;;;;20.10;44.92;103065.19;5123993;28;20116;-37
2021/12/16 04:51:08;;;;;;;0.15;0.15;;;;;;;20.09;44.99;103066.28;5106665;28;20046;-38
2021/12/16 04:53:35;;;;;;;0.10;0.10;;;;;;;20.09;44.88;103075.41;5087906;28;20045;-36
2021/12/16 04:56:01;;;;;;;0.20;0.20;;;;;;;20.09;44.84;103080.09;5106974;28;20043;-37
2021/12/16 04:58:27;;;;;;;0.20;0.20;;;;;;;20.08;44.96;103075.63;5089904;28;20443;-38
2021/12/16 05:00:53;;;;;;;0.20;0.20;;;;;;;20.10;44.99;103070.72;5117286;28;20054;-38
2021/12/16 05:03:19;;;;;;;0.20;0.20;;;;;;;20.10;44.66;103065.19;5122086;28;20805;-38
2021/12/16 05:05:45;;;;;;;0.10;0.10;;;;;;;20.09;44.92;103072.66;5124952;28;20043;-38
2021/12/16 05:08:11;;;;;;;0.20;0.20;;;;;;;20.09;44.90;103060.75;5089796;28;20043;-38
2021/12/16 05:10:36;;;;;;;0.15;0.15;;;;;;;20.09;45.00;103060.75;5118898;28;20043;-38
2021/12/16 05:13:04;;;;;;;0.20;0.20;;;;;;;20.09;44.89;103060.75;5125007;28;20047;-37
2021/12/16 05:15:33;;;;;;;0.10;0.10;;;;;;;20.08;45.02;103062.66;5123266;28;20043;-37
2021/12/16 05:18:02;;;;;;;0.15;0.15;;;;;;;20.07;45.16;103063.72;5105026;28;20416;-38
2021/12/16 05:20:31;;;;;;;0.20;0.20;;;;;;;20.08;45.06;103067.34;5098338;28;20471;-37
2021/12/16 05:26:18;;;;;;;0.20;0.20;;;;;;;20.09;45.09;103064.34;5077276;28;20355;-37
2021/12/16 05:28:29;;;;;;;0.20;0.20;;;;;;;20.07;44.80;103072.03;5098189;28;20046;-36
2021/12/16 05:30:56;;;;;;;0.20;0.20;;;;;;;20.08;44.74;103068.19;5115558;28;20122;-38
2021/12/16 05:33:22;;;;;;;0.20;0.20;;;;;;;20.08;45.07;103070.97;5097709;28;20077;-36
2021/12/16 05:35:49;;;;;;;0.20;0.20;;;;;;;20.08;44.83;103064.56;5121730;28;20049;-37
2021/12/16 05:38:15;;;;;;;0.20;0.20;;;;;;;20.09;44.73;103074.56;5104095;28;20414;-36
2021/12/16 05:40:41;;;;;;;0.20;0.20;;;;;;;20.08;44.81;103068.19;5107356;28;20043;-38
2021/12/16 05:43:10;;;;;;;0.20;0.20;;;;;;;20.09;44.84;103078.19;5121897;28;20046;-37
2021/12/16 05:45:36;;;;;;;0.20;0.20;;;;;;;20.08;44.84;103082.03;5119800;28;20496;-39
2021/12/16 05:48:04;;;;;;;0.20;0.20;;;;;;;20.08;44.89;103078.41;5105516;28;20553;-39
2021/12/16 05:50:33;;;;;;;0.20;0.20;;;;;;;20.08;44.92;103081.16;5103697;28;20051;-37
2021/12/16 05:52:58;;;;;;;;;;;;;;;20.08;45.04;103084.81;5103066;28;20047;-38
2021/12/16 05:55:24;;;;;;;0.20;0.20;;;;;;;20.07;44.84;103085.00;5119570;28;19927;-37
2021/12/16 05:57:51;;;;;;;0.20;0.20;;;;;;;20.09;44.71;103093.94;5121531;28;20058;-40
2021/12/16 06:00:22;;;;;;;0.20;0.20;;;;;;;20.06;44.93;103100.78;5121355;28;20055;-38
2021/12/16 06:02:48;;;;;;;0.20;0.20;;;;;;;20.07;44.77;103096.06;5121551;28;20108;-37
2021/12/16 06:05:14;;;;;;;0.20;0.20;;;;;;;20.07;44.99;103098.84;5101047;28;20050;-37
2021/12/16 06:07:40;;;;;;;0.20;0.20;;;;;;;20.07;44.81;103104.38;5119895;28;20115;-37
2021/12/16 06:10:10;;;;;;;0.10;0.10;;;;;;;20.06;44.70;103106.31;5120858;28;20443;-37
2021/12/16 06:12:36;;;;;;;0.20;0.20;;;;;;;20.07;44.84;103104.38;5124903;28;20479;-37
2021/12/16 06:15:19;;;;;;;0.20;0.20;;;;;;;20.07;44.85;103107.16;5122039;28;20043;-37
2021/12/16 06:28:41;;;;;;;0.20;0.20;;;;;;;20.06;45.03;103136.72;5144434;27;20042;-36
2021/12/16 06:31:07;;;;;;;0.20;0.20;;;;;;;20.06;44.76;103133.97;5160822;27;20042;-37
2021/12/16 06:33:32;;;;;;;0.20;0.20;;;;;;;20.06;44.84;103136.72;5161433;27;20426;-37
2021/12/16 06:35:58;;;;;;;0.20;0.20;;;;;;;20.07;45.08;103135.63;5140757;27;20066;-36
2021/12/16 06:38:24;;;;;;;0.20;0.20;;;;;;;20.07;44.67;103134.81;5156787;27;20077;-37
2021/12/16 06:40:49;;;;;;;0.20;0.20;;;;;;;20.05;45.15;103135.88;5138415;27;21066;-36
2021/12/16 06:43:17;;;;;;;0.10;0.10;;;;;;;20.06;45.01;103131.19;5161821;27;20046;-37
2021/12/16 06:45:49;;;;;;;0.13;0.13;;;;;;;20.01;44.54;103137.44;5158380;27;20442;-39
2021/12/16 06:48:20;;;;;;;0.20;0.20;;;;;;;20.01;44.87;103140.19;5160306;27;20042;-39
2021/12/16 06:50:55;;;;;;;0.20;0.20;;;;;;;20.08;44.93;103142.00;5156272;27;20042;-38
2021/12/16 06:53:29;;;;;;;0.20;0.20;;;;;;;20.09;44.88;103146.50;5156085;27;20058;-38
2021/12/16 06:56:04;;;;;;;0.20;0.20;;;;;;;20.09;44.57;103147.34;5155354;27;20461;-38
2021/12/16 06:58:36;;;;;;;0.10;0.10;;;;;;;20.09;44.76;103155.63;5134881;27;20038;-37
2021/12/16 07:01:12;;;;;;;0.10;0.10;;;;;;;20.14;44.79;103146.63;5127392;27;20066;-40
2021/12/16 07:03:47;;;;;;;0.20;0.20;;;;;;;20.14;44.58;103157.69;5119790;27;20536;-41
2021/12/16 07:06:19;;;;;;;0.20;0.20;;;;;;;20.13;44.71;103150.47;5146863;27;20061;-42
2021/12/16 07:08:46;;;;;;;0.10;0.10;;;;;;;20.13;45.05;103159.63;5116763;27;20103;-42
2021/12/16 07:11:12;;;;;;;0.20;0.20;;;;;;;19.97;43.08;103155.56;5151104;27;20042;-46
2021/12/16 07:13:41;;;;;;;0.20;0.20;;;;;;;20.01;44.43;103165.09;5152702;27;20243;-40
2021/12/16 07:16:11;;;;;;;0.20;0.20;;;;;;;20.12;44.36;103166.25;5138658;27;20125;-40
2021/12/16 07:18:37;;;;;;;0.20;0.20;;;;;;;20.14;44.24;103168.75;5137033;27;20133;-44
2021/12/16 07:21:04;;;;;;;0.20;0.20;;;;;;;20.17;44.36;103173.84;5151732;27;20385;-40
2021/12/16 07:23:30;;;;;;;0.20;0.20;;;;;;;20.17;44.19;103185.75;5124657;27;20458;-39
2021/12/16 07:25:58;;;;;;;0.20;0.20;;;;;;;20.19;44.55;103191.03;5131186;27;20042;-47
2021/12/16 07:28:24;;;;;;;0.20;0.20;;;;;;;20.21;44.19;103197.19;5153320;27;20042;-38
2021/12/16 07:30:50;;;;;;;0.20;0.20;;;;;;;20.21;44.53;103194.44;5135833;27;20038;-40
2021/12/16 07:33:17;;;;;;;0.20;0.20;;;;;;;20.22;44.13;103209.94;5153314;27;20504;-41
2021/12/16 07:35:43;;;;;;;0.20;0.20;;;;;;;20.24;44.33;103208.63;5150381;27;20152;-38
2021/12/16 07:38:09;;;;;;;0.20;0.20;;;;;;;20.24;44.05;103208.63;5139999;27;20346;-37
2021/12/16 07:40:36;;;;;;;0.20;0.20;;;;;;;20.26;44.42;103219.47;5120852;27;20047;-39
2021/12/16 07:45:44;;;;;;;0.20;0.20;;;;;;;20.28;44.00;103223.69;5150412;27;20205;-39
2021/12/16 07:48:11;;;;;;;0.20;0.20;;;;;;;20.29;44.34;103228.16;5155838;27;20552;-37
2021/12/16 07:50:38;;;;;;;0.20;0.20;;;;;;;20.29;43.99;103228.16;5153400;27;20055;-36
2021/12/16 07:53:05;;;;;;;0.20;0.20;;;;;;;20.30;43.97;103237.31;5146354;27;20556;-39
2021/12/16 07:55:31;;;;;;;0.20;0.20;;;;;;;20.30;44.26;103235.38;5151141;27;20349;-39
2021/12/16 07:57:57;;;;;;;0.20;0.20;;;;;;;20.32;43.92;103229.59;5152889;27;20042;-37
2021/12/16 08:00:25;;;;;;;0.20;0.20;;;;;;;20.33;44.13;103228.50;5148832;27;20439;-36
2021/12/16 08:02:52;;;;;;;0.20;0.20;;;;;;;20.34;43.83;103237.69;5146573;27;20039;-37
2021/12/16 08:05:21;;;;;;;0.20;0.20;;;;;;;20.35;44.19;103237.44;5106890;27;20639;-41
2021/12/16 08:07:47;;;;;;;0.13;0.13;;;;;;;20.36;44.04;103236.34;5113103;27;20038;-43
2021/12/16 08:10:17;;;;;;;0.20;0.20;;;;;;;20.39;44.49;103249.72;5129963;27;20043;-37
2021/12/16 08:12:43;;;;;;;0.20;0.20;;;;;;;20.46;44.12;103249.63;5149209;27;20053;-40
2021/12/16 08:15:11;;;;;;;0.20;0.20;;;;;;;20.46;44.31;103247.69;5151023;27;20069;-38
2021/12/16 08:17:37;;;;;;;0.20;0.20;;;;;;;20.45;44.13;103257.09;5154783;27;20034;-38
2021/12/16 08:20:04;;;;;;;0.10;0.10;;;;;;;20.46;43.86;103250.47;5133479;27;20057;-37
2021/12/16 08:22:30;;;;;;;0.10;0.10;;;;;;;20.45;44.22;103250.72;5154602;27;20054;-40
2021/12/16 08:24:56;;;;;;;0.20;0.20;;;;;;;20.45;44.29;103245.19;5131239;27;20046;-39
2021/12/16 08:27:22;;;;;;;0.20;0.20;;;;;;;20.47;44.12;103256.88;5154394;27;20070;-39
2021/12/16 08:29:48;;;;;;;0.20;0.20;;;;;;;20.48;44.22;103272.44;5129908;27;20043;-42
2021/12/16 08:32:14;;;;;;;0.20;0.20;;;;;;;20.51;43.83;103266.44;5148706;27;20474;-40
2021/12/16 08:34:42;;;;;;;0.20;0.20;;;;;;;20.53;44.17;103269.81;5132392;27;20043;-42
2021/12/16 08:37:09;;;;;;;0.10;0.10;;;;;;;20.55;43.94;103278.72;5147968;27;20047;-40
2021/12/16 08:39:36;;;;;;;0.10;0.10;;;;;;;20.54;43.93;103274.25;5154408;27;20262;-37
2021/12/16 08:42:04;;;;;;;0.20;0.20;;;;;;;20.54;43.92;103274.25;5120025;27;20047;-42
2021/12/16 08:44:30;;;;;;;0.10;0.10;;;;;;;20.57;43.76;103278.50;5130479;27;20165;-39
2021/12/16 08:46:59;;;;;;;0.17;0.17;;;;;;;20.56;43.94;103272.13;5152841;27;20043;-40
2021/12/16 08:49:26;;;;;;;0.20;0.20;;;;;;;20.57;44.11;103278.50;5149391;27;20070;-42
2021/12/16 08:51:59;;;;;;;0.30;0.30;;;;;;;20.58;44.01;103280.19;5157151;27;20095;-40
2021/12/16 08:54:26;;;;;;;0.10;0.10;;;;;;;20.58;43.81;103278.25;5115010;27;20043;-39
2021/12/16 08:56:52;;;;;;;0.15;0.15;;;;;;;20.59;44.06;103284.63;5143288;27;20047;-38
2021/12/16 08:59:18;;;;;;;0.20;0.20;;;;;;;20.60;43.92;103284.41;5120929;27;20053;-39
2021/12/16 09:01:48;;;;;;;0.13;0.13;;;;;;;20.60;44.00;103292.72;5105904;27;20071;-39
2021/12/16 09:04:16;;;;;;;0.10;0.10;;;;;;;20.61;43.71;103290.78;5132618;27;20043;-40
2021/12/16 09:06:43;;;;;;;0.20;0.20;;;;;;;20.61;43.79;103299.94;5130205;27;20478;-41
2021/12/16 09:09:09;;;;;;;0.10;0.10;;;;;;;20.63;43.92;103297.75;5106316;27;20054;-39
2021/12/16 09:11:41;;;;;;;0.10;0.10;;;;;;;20.64;43.66;103304.16;5126325;27;20085;-45
2021/12/16 09:14:07;;;;;;;0.20;0.20;;;;;;;20.64;43.42;103304.16;5126579;27;20373;-38
2021/12/16 09:16:35;;;;;;;0.10;0.10;;;;;;;20.65;43.76;103311.41;5136707;27;20042;-40
2021/12/16 09:19:02;;;;;;;0.10;0.10;;;;;;;20.65;43.79;103312.25;5113144;27;20172;-41
2021/12/16 09:21:31;;;;;;;0.10;0.10;;;;;;;20.65;43.82;103323.31;5137351;27;20046;-44
2021/12/16 09:23:58;;;;;;;0.20;0.20;;;;;;;20.52;42.03;103324.31;5110202;27;20047;-44
2021/12/16 09:26:24;;;;;;;0.10;0.10;;;;;;;20.43;42.56;103322.09;5116803;27;20663;-46
2021/12/16 09:28:50;;;;;;;0.10;0.10;;;;;;;20.44;42.72;103327.38;5134747;27;20396;-43
2021/12/16 09:31:19;;;;;;;0.20;0.20;;;;;;;20.49;42.83;103330.31;5136388;27;20461;-42
2021/12/16 09:33:48;;;;;;;;;;;;;;;20.53;42.82;103326.00;5108134;27;20046;-43
2021/12/16 09:36:16;;;;;;;0.20;0.20;;;;;;;20.52;43.16;103334.56;5130072;27;19927;-39
2021/12/16 09:38:43;;;;;;;0.10;0.10;;;;;;;20.52;43.23;103329.88;5114204;27;20267;-45
2021/12/16 09:41:09;;;;;;;0.10;0.10;;;;;;;20.52;43.14;103324.31;5111494;27;20418;-43
2021/12/16 09:43:38;;;;;;;0.13;0.13;;;;;;;20.39;42.98;103340.22;5133787;27;20061;-44
2021/12/16 09:46:07;;;;;;;0.10;0.10;;;;;;;20.47;43.51;103338.00;5118653;27;20453;-46
2021/12/16 09:48:35;;;;;;;0.10;0.10;;;;;;;20.59;43.21;103342.75;5138471;27;20043;-47
2021/12/16 09:51:04;;;;;;;0.20;0.20;;;;;;;20.62;43.07;103342.31;5130181;27;20364;-45
2021/12/16 09:53:31;;;;;;;0.30;0.30;;;;;;;20.75;43.24;103339.38;5112021;27;20050;-38
2021/12/16 09:56:00;;;;;;;0.10;0.10;;;;;;;20.83;43.13;103335.44;5113126;27;20057;-40
2021/12/16 09:58:28;;;;;;;0.20;0.20;;;;;;;20.85;43.03;103344.34;5133139;27;20431;-37
2021/12/16 10:00:53;;;;;;;0.10;0.10;;;;;;;20.86;42.74;103340.53;5129762;27;20060;-38
2021/12/16 10:03:20;;;;;;;0.10;0.10;;;;;;;20.87;43.16;103333.91;5134440;27;20050;-38
2021/12/16 10:05:45;;;;;;;0.10;0.10;;;;;;;20.88;42.97;103336.41;5111959;27;20534;-38
2021/12/16 10:08:11;;;;;;;0.10;0.10;;;;;;;20.91;42.97;103335.13;5120416;27;20325;-38
2021/12/16 10:10:38;;;;;;;0.10;0.10;;;;;;;20.94;43.00;103331.84;5126991;27;20539;-38
2021/12/16 10:13:05;;;;;;;0.20;0.20;;;;;;;20.96;42.69;103330.56;5118981;27;20130;-37
2021/12/16 10:18:08;;;;;;;0.20;0.20;;;;;;;20.97;42.94;103329.47;5108508;27;20050;-42
2021/12/16 10:20:39;;;;;;;0.10;0.10;;;;;;;20.98;43.05;103324.75;5127814;27;20715;-36
2021/12/16 10:23:27;;;;;;;0.13;0.13;;;;;;;21.00;42.99;103328.16;5125200;27;20047;-43
2021/12/16 10:25:56;;;;;;;0.10;0.10;;;;;;;20.99;42.75;103334.78;5117424;27;20043;-41
2021/12/16 10:28:26;;;;;;;0.15;0.15;;;;;;;20.99;43.07;103324.56;5130617;27;20051;-40
2021/12/16 10:31:02;;;;;;;0.10;0.10;;;;;;;21.00;42.74;103328.16;5126910;27;20280;-43
2021/12/16 10:33:32;;;;;;;0.10;0.10;;;;;;;21.01;42.88;103327.06;5128898;27;20865;-42
2021/12/16 10:36:20;;;;;;;0.10;0.10;;;;;;;21.02;42.97;103326.81;5100054;27;20395;-42
2021/12/16 10:38:49;;;;;;;;;;;;;;;21.03;42.88;103324.94;5107408;27;20542;-40
2021/12/16 10:41:21;;;;;;;0.17;0.17;;;;;;;21.02;42.87;103326.00;5125520;27;19927;-42
2021/12/16 10:43:52;;;;;;;0.20;0.20;;;;;;;21.03;42.92;103320.22;5114988;27;20107;-42
2021/12/16 10:46:23;;;;;;;0.10;0.10;;;;;;;21.04;42.98;103321.91;5110654;27;20560;-40
2021/12/16 10:48:52;;;;;;;0.10;0.10;;;;;;;21.04;42.71;103333.00;5132551;27;20045;-42
2021/12/16 10:54:11;;;;;;;0.20;0.20;;;;;;;21.04;42.48;103329.38;5099615;27;20130;-37
2021/12/16 10:56:42;;;;;;;0.10;0.10;;;;;;;21.05;42.75;103343.00;5073730;28;20131;-38
2021/12/16 10:59:20;;;;;;;0.10;0.10;;;;;;;21.06;42.87;103343.84;5085472;28;20512;-43
2021/12/16 11:02:00;;;;;;;0.10;0.10;;;;;;;21.07;42.92;103344.66;5073730;28;20108;-39
2021/12/16 11:04:48;;;;;;;0.15;0.15;;;;;;;21.07;43.04;103341.91;5078553;28;20467;-37
2021/12/16 11:07:37;;;;;;;0.20;0.20;;;;;;;21.07;42.75;103350.22;5070563;28;21665;-36
2021/12/16 11:10:27;;;;;;;0.10;0.10;;;;;;;21.08;42.77;103347.22;5071162;28;20413;-38
2021/12/16 11:12:55;;;;;;;0.20;0.20;;;;;;;21.08;42.65;103349.16;5075476;28;20056;-38
2021/12/16 11:15:27;;;;;;;0.10;0.10;;;;;;;21.08;42.81;103351.94;5088218;28;20039;-41
2021/12/16 11:18:24;;;;;;;0.10;0.10;;;;;;;21.07;42.59;103352.97;5086750;28;21330;-40
2021/12/16 11:20:57;;;;;;;0.10;0.10;;;;;;;21.08;42.87;103360.25;5077689;28;20044;-41
2021/12/16 11:23:26;;;;;;;0.10;0.10;;;;;;;21.08;42.62;103365.78;5066677;28;20583;-38
2021/12/16 11:25:59;;;;;;;0.10;0.10;;;;;;;21.07;42.66;103355.75;5087138;28;20703;-38
2021/12/16 11:28:32;;;;;;;0.10;0.10;;;;;;;21.06;42.91;103360.44;5091365;28;20484;-39
2021/12/16 11:31:06;;;;;;;0.10;0.10;;;;;;;21.05;42.83;103348.53;5068546;28;20052;-39
2021/12/16 11:36:27;;;;;;;0.10;0.10;;;;;;;21.05;42.92;103347.69;5124561;27;20215;-40
2021/12/16 11:38:59;;;;;;;0.17;0.17;;;;;;;21.03;42.82;103352.63;5093857;27;20051;-36
2021/12/16 11:41:28;;;;;;;0.10;0.10;;;;;;;21.02;42.66;103351.75;5118225;27;20047;-35
2021/12/16 11:44:05;;;;;;;0.10;0.10;;;;;;;21.02;42.88;103349.00;5113885;27;20088;-37
2021/12/16 11:49:24;;;;;;;0.10;0.10;;;;;;;21.01;42.96;103343.69;5143404;27;20166;-36
2021/12/16 11:52:02;;;;;;;0.10;0.10;;;;;;;21.00;42.72;103342.00;5130857;27;20043;-36
2021/12/16 11:54:38;;;;;;;0.10;0.10;;;;;;;20.98;42.88;103336.72;5145884;27;20106;-35
2021/12/16 11:57:27;;;;;;;0.10;0.10;;;;;;;20.93;43.13;103342.09;5152591;27;20045;-36
2021/12/16 12:00:12;;;;;;;0.10;0.10;;;;;;;20.98;42.97;103335.84;5125401;27;20366;-36
2021/12/16 12:02:42;;;;;;;0.10;0.10;;;;;;;21.00;42.91;103344.78;5133646;27;20476;-35
2021/12/16 12:08:24;;;;;;;0.10;0.10;;;;;;;20.98;43.00;103327.53;5147814;27;20205;-37
2021/12/16 12:10:59;;;;;;;0.20;0.20;;;;;;;20.99;42.98;103332.03;5139854;27;20102;-36
2021/12/16 12:13:29;;;;;;;0.10;0.10;;;;;;;21.00;42.93;103330.94;5137129;27;20047;-37
2021/12/16 12:16:21;;;;;;;0.10;0.10;;;;;;;20.99;42.99;103332.84;5137744;27;20078;-38
2021/12/16 12:18:54;;;;;;;0.10;0.10;;;;;;;20.99;42.81;103326.47;5126474;27;20524;-37
2021/12/16 12:24:27;;;;;;;0.10;0.10;;;;;;;21.03;42.86;103336.84;5153237;27;20462;-39
2021/12/16 12:26:57;;;;;;;0.10;0.10;;;;;;;21.03;43.05;103331.31;5134535;27;20050;-40
2021/12/16 12:29:28;;;;;;;0.10;0.10;;;;;;;21.03;42.82;103330.47;5132530;27;21176;-39
2021/12/16 12:32:00;;;;;;;0.10;0.10;;;;;;;21.02;42.85;103329.59;5116467;27;20047;-39
2021/12/16 12:34:26;;;;;;;0.10;0.10;;;;;;;21.01;42.92;103336.22;5132782;27;20047;-39
2021/12/16 12:36:54;;;;;;;0.10;0.10;;;;;;;20.86;43.32;103343.28;5128716;27;20442;-44
2021/12/16 12:39:22;;;;;;;0.10;0.10;;;;;;;20.93;43.61;103336.56;5109026;27;20043;-38
2021/12/16 12:41:48;;;;;;;0.10;0.10;;;;;;;21.00;43.29;103333.69;5108545;27;20039;-38
2021/12/16 12:44:14;;;;;;;0.10;0.10;;;;;;;21.01;43.38;103330.69;5108608;27;20054;-41
2021/12/16 12:46:42;;;;;;;0.10;0.10;;;;;;;21.03;43.03;103327.69;5122049;27;20034;-42
2021/12/16 12:49:11;;;;;;;0.10;0.10;;;;;;;21.04;42.97;103318.31;5134575;27;20051;-42
2021/12/16 12:51:44;;;;;;;0.10;0.10;;;;;;;21.05;43.11;103331.06;5112788;27;20476;-42
2021/12/16 12:54:30;;;;;;;0.10;0.10;;;;;;;21.06;42.93;103329.97;5119980;27;20050;-37
2021/12/16 12:57:22;;;;;;;0.10;0.10;;;;;;;21.07;43.01;103339.13;5102020;27;20102;-40
2021/12/16 12:59:48;;;;;;;0.10;0.10;;;;;;;21.08;42.90;103338.06;5111056;27;20432;-36
2021/12/16 13:02:22;;;;;;;0.10;0.10;;;;;;;21.08;43.02;103341.69;5118870;27;20058;-41
2021/12/16 13:04:58;;;;;;;0.10;0.10;;;;;;;21.08;42.81;103338.91;5114112;27;20048;-41
2021/12/16 13:07:43;;;;;;;0.10;0.10;;;;;;;21.09;42.98;103339.75;5136146;27;20047;-39
2021/12/16 13:12:59;;;;;;;0.10;0.10;;;;;;;21.08;42.88;103341.69;5167421;27;20403;-44
2021/12/16 13:24:41;;;;;;;0.10;0.10;;;;;;;21.10;42.85;103344.22;5130144;27;20484;-38
2021/12/16 13:27:25;;;;;;;0.10;0.10;;;;;;;21.10;42.73;103336.75;5135820;27;20035;-39
2021/12/16 13:30:22;;;;;;;0.20;0.20;;;;;;;21.11;43.11;103327.34;5118712;27;20050;-37
2021/12/16 13:32:45;;;;;;;0.10;0.10;;;;;;;21.10;42.75;103325.66;5121508;27;20042;-37
2021/12/16 13:37:57;;;;;;;0.10;0.10;;;;;;;21.11;42.74;103326.50;5151112;27;20544;-35
2021/12/16 13:40:28;;;;;;;0.10;0.10;;;;;;;21.11;42.62;103332.88;5131368;27;20416;-38
2021/12/16 13:43:02;;;;;;;0.10;0.10;;;;;;;21.12;42.87;103333.75;5156905;27;20419;-36
2021/12/16 13:45:35;;;;;;;0.10;0.10;;;;;;;21.10;42.66;103342.28;5136202;27;20042;-36
2021/12/16 13:48:24;;;;;;;0.10;0.10;;;;;;;21.11;42.87;103349.50;5139700;27;20093;-38
2021/12/16 14:05:18;;;;;;;0.15;0.15;;;;;;;21.09;42.63;103357.22;5112948;27;20499;-40
2021/12/16 14:08:05;;;;;;;0.10;0.10;;;;;;;21.07;42.85;103358.53;5134601;27;20404;-38
2021/12/16 14:17:09;;;;;;;0.10;0.10;;;;;;;20.77;42.70;103359.38;5122192;27;20035;-37
2021/12/16 14:25:22;;;;;;;0.10;0.10;;;;;;;20.98;42.89;103355.22;5085309;27;20095;-35
2021/12/16 14:41:49;;;;;;;0.17;0.17;;;;;;;21.01;42.60;103354.78;5151393;27;20130;-36
2021/12/16 14:45:11;;;;;;;0.10;0.10;;;;;;;21.01;42.85;103358.38;5120532;27;21417;-36
2021/12/16 14:47:17;;;;;;;0.10;0.10;;;;;;;21.02;42.66;103350.91;5128919;27;20053;-36
2021/12/16 14:49:46;;;;;;;0.10;0.10;;;;;;;21.01;42.72;103358.38;5139477;27;20503;-35
2021/12/16 14:52:15;;;;;;;0.10;0.10;;;;;;;21.03;42.71;103361.78;5131946;27;20430;-38
2021/12/16 14:55:04;;;;;;;0.20;0.20;;;;;;;21.03;42.63;103366.50;5122166;27;20043;-37